createdAt,value
2017-04-13T00:00:02.220Z,1001.88
2017-04-13T00:01:11.174Z,1001.87
2017-04-13T00:02:20.131Z,1001.9
2017-04-13T00:03:29.089Z,1001.92
2017-04-13T00:04:38.077Z,1001.89
2017-04-13T00:05:47.655Z,1001.9
2017-04-13T00:06:56.612Z,1001.9
2017-04-13T00:08:05.889Z,1001.85
2017-04-13T00:09:14.841Z,1001.89
2017-04-13T00:10:23.795Z,1001.91
2017-04-13T00:11:32.990Z,1001.86
2017-04-13T00:12:41.944Z,1001.91
2017-04-13T00:13:50.897Z,1001.88
2017-04-13T00:14:59.852Z,1001.86
2017-04-13T00:16:08.804Z,1001.87
2017-04-13T00:17:18.002Z,1001.85
2017-04-13T00:18:26.949Z,1001.91
2017-04-13T00:19:35.902Z,1001.8
2017-04-13T00:20:44.850Z,1001.86
2017-04-13T00:21:53.803Z,1001.84
2017-04-13T00:23:03.006Z,1001.8
2017-04-13T00:24:12.042Z,1001.86
2017-04-13T00:25:21.003Z,1001.87
2017-04-13T00:26:29.957Z,1001.92
2017-04-13T00:27:38.910Z,1001.83
2017-04-13T00:28:48.120Z,1001.83
2017-04-13T00:29:57.082Z,1001.76
2017-04-13T00:31:06.038Z,1001.85
2017-04-13T00:32:14.992Z,1001.85
2017-04-13T00:33:23.948Z,1001.92
2017-04-13T00:34:33.240Z,1001.89
2017-04-13T00:35:42.518Z,1001.92
2017-04-13T00:36:51.474Z,1001.9
2017-04-13T00:38:00.513Z,1001.98
2017-04-13T00:39:09.469Z,1002.04
2017-04-13T00:40:18.763Z,1002.02
2017-04-13T00:41:27.711Z,1002.13
2017-04-13T00:42:36.662Z,1002.08
2017-04-13T00:43:45.619Z,1002.07
2017-04-13T00:44:54.571Z,1002.13
2017-04-13T00:46:03.859Z,1002.12
2017-04-13T00:47:12.813Z,1002.12
2017-04-13T00:48:21.768Z,1002.13
2017-04-13T00:49:30.720Z,1002.06
2017-04-13T00:50:39.676Z,1002.12
2017-04-13T00:51:48.879Z,1002.14
2017-04-13T00:52:57.837Z,1002.11
2017-04-13T00:54:06.801Z,1002.13
2017-04-13T00:55:15.749Z,1002.17
2017-04-13T00:56:24.711Z,1002.16
2017-04-13T00:57:33.920Z,1002.19
2017-04-13T00:58:43.211Z,1002.2
2017-04-13T00:59:52.165Z,1002.19
2017-04-13T01:01:01.169Z,1002.2
2017-04-13T01:02:10.119Z,1002.26
2017-04-13T01:03:19.319Z,1002.29
2017-04-13T01:04:28.362Z,1002.26
2017-04-13T01:05:37.318Z,1002.25
2017-04-13T01:06:46.607Z,1002.23
2017-04-13T01:07:55.562Z,1002.25
2017-04-13T01:09:04.763Z,1002.25
2017-04-13T01:10:13.714Z,1002.29
2017-04-13T01:11:22.665Z,1002.22
2017-04-13T01:12:31.617Z,1002.22
2017-04-13T01:13:40.570Z,1002.25
2017-04-13T01:14:49.767Z,1002.2
2017-04-13T01:15:58.717Z,1002.2
2017-04-13T01:17:07.675Z,1002.2
2017-04-13T01:18:16.626Z,1002.15
2017-04-13T01:19:25.575Z,1002.15
2017-04-13T01:20:34.779Z,1002.19
2017-04-13T01:21:43.790Z,1002.18
2017-04-13T01:22:52.741Z,1002.09
2017-04-13T01:24:01.697Z,1002.11
2017-04-13T01:25:10.986Z,1002.16
2017-04-13T01:26:20.192Z,1002.13
2017-04-13T01:27:29.145Z,1002.14
2017-04-13T01:28:38.276Z,1002.15
2017-04-13T01:29:47.234Z,1002.2
2017-04-13T01:30:56.183Z,1002.17
2017-04-13T01:32:05.382Z,1002.19
2017-04-13T01:33:14.425Z,1002.21
2017-04-13T01:34:23.383Z,1002.23
2017-04-13T01:35:32.335Z,1002.14
2017-04-13T01:36:41.374Z,1002.17
2017-04-13T01:37:50.577Z,1002.17
2017-04-13T01:38:59.537Z,1002.2
2017-04-13T01:40:08.670Z,1002.2
2017-04-13T01:41:17.620Z,1002.14
2017-04-13T01:42:26.570Z,1002.16
2017-04-13T01:43:35.824Z,1002.14
2017-04-13T01:44:44.782Z,1002.13
2017-04-13T01:45:53.778Z,1002.12
2017-04-13T01:47:02.906Z,1002.13
2017-04-13T01:48:11.855Z,1002.11
2017-04-13T01:49:21.114Z,1002.09
2017-04-13T01:50:30.066Z,1002.09
2017-04-13T01:51:39.019Z,1002.12
2017-04-13T01:52:47.972Z,1002.1
2017-04-13T01:53:56.924Z,1002.04
2017-04-13T01:55:06.127Z,1002.12
2017-04-13T01:56:15.082Z,1002.13
2017-04-13T01:57:24.041Z,1002.07
2017-04-13T01:58:33.045Z,1002.07
2017-04-13T01:59:42.006Z,1002.11
2017-04-13T02:00:51.208Z,1002.11
2017-04-13T02:02:00.161Z,1002.07
2017-04-13T02:03:09.111Z,1002.07
2017-04-13T02:04:18.074Z,1002.13
2017-04-13T02:05:27.030Z,1002.14
2017-04-13T02:06:36.234Z,1002.09
2017-04-13T02:07:45.186Z,1002.06
2017-04-13T02:08:54.134Z,1002.09
2017-04-13T02:10:03.083Z,1002.07
2017-04-13T02:11:12.035Z,1002.07
2017-04-13T02:12:21.280Z,1002.09
2017-04-13T02:13:30.242Z,1002.05
2017-04-13T02:14:39.206Z,1002.08
2017-04-13T02:15:48.165Z,1002.06
2017-04-13T02:16:57.126Z,1002.12
2017-04-13T02:18:06.344Z,1002.14
2017-04-13T02:19:15.298Z,1002.12
2017-04-13T02:20:24.254Z,1002.08
2017-04-13T02:21:33.208Z,1002.07
2017-04-13T02:22:42.246Z,1002.07
2017-04-13T02:23:51.447Z,1002.08
2017-04-13T02:25:00.401Z,1002.12
2017-04-13T02:26:09.443Z,1002.09
2017-04-13T02:27:18.392Z,1002.03
2017-04-13T02:28:27.353Z,1002.1
2017-04-13T02:29:36.888Z,1002.07
2017-04-13T02:30:45.847Z,1002.04
2017-04-13T02:31:55.124Z,1002.06
2017-04-13T02:33:04.073Z,1002.06
2017-04-13T02:34:13.025Z,1002.06
2017-04-13T02:35:22.229Z,1002.11
2017-04-13T02:36:31.180Z,1002.1
2017-04-13T02:37:40.458Z,1002.09
2017-04-13T02:38:49.412Z,1002.06
2017-04-13T02:39:58.360Z,1002.09
2017-04-13T02:41:07.559Z,1002.07
2017-04-13T02:42:16.514Z,1002.11
2017-04-13T02:43:25.788Z,1002.12
2017-04-13T02:44:34.746Z,1002.15
2017-04-13T02:45:43.700Z,1002.14
2017-04-13T02:46:52.907Z,1002.16
2017-04-13T02:48:01.857Z,1002.11
2017-04-13T02:49:10.807Z,1002.17
2017-04-13T02:50:19.767Z,1002.15
2017-04-13T02:51:28.714Z,1002.11
2017-04-13T02:52:38.002Z,1002.17
2017-04-13T02:53:46.952Z,1002.12
2017-04-13T02:54:55.987Z,1002.1
2017-04-13T02:56:04.936Z,1002.1
2017-04-13T02:57:13.893Z,1002.08
2017-04-13T02:58:23.193Z,1002.12
2017-04-13T02:59:32.141Z,1002.1
2017-04-13T03:00:41.099Z,1002.12
2017-04-13T03:01:50.057Z,1002.1
2017-04-13T03:02:59.099Z,1002.08
2017-04-13T03:04:08.308Z,1002.14
2017-04-13T03:05:17.261Z,1002.09
2017-04-13T03:06:26.216Z,1002.13
2017-04-13T03:07:35.211Z,1002.11
2017-04-13T03:08:44.163Z,1002.1
2017-04-13T03:09:53.366Z,1002.09
2017-04-13T03:11:02.398Z,1002.1
2017-04-13T03:12:11.350Z,1002.1
2017-04-13T03:13:20.310Z,1002.05
2017-04-13T03:14:29.262Z,1002.03
2017-04-13T03:15:38.463Z,1002.01
2017-04-13T03:16:47.500Z,1002.01
2017-04-13T03:17:56.450Z,1002.02
2017-04-13T03:19:05.399Z,1002.03
2017-04-13T03:20:14.366Z,1002.03
2017-04-13T03:21:23.567Z,1002.03
2017-04-13T03:22:32.512Z,1001.99
2017-04-13T03:23:41.461Z,1001.98
2017-04-13T03:24:50.417Z,1002.02
2017-04-13T03:25:59.418Z,1002.05
2017-04-13T03:27:08.705Z,1002.03
2017-04-13T03:28:17.656Z,1001.99
2017-04-13T03:29:26.613Z,1001.98
2017-04-13T03:30:35.563Z,1001.97
2017-04-13T03:31:44.604Z,1002.05
2017-04-13T03:32:53.810Z,1002.04
2017-04-13T03:34:02.850Z,1002.02
2017-04-13T03:35:11.800Z,1001.98
2017-04-13T03:36:20.754Z,1002
2017-04-13T03:37:29.792Z,1002.02
2017-04-13T03:38:38.992Z,1002.06
2017-04-13T03:39:47.940Z,1002.02
2017-04-13T03:40:56.892Z,1002
2017-04-13T03:42:05.842Z,1002.02
2017-04-13T03:43:14.797Z,1001.95
2017-04-13T03:44:23.996Z,1001.98
2017-04-13T03:45:32.945Z,1001.94
2017-04-13T03:46:41.893Z,1001.95
2017-04-13T03:47:50.845Z,1001.95
2017-04-13T03:48:59.808Z,1001.99
2017-04-13T03:50:09.095Z,1002.03
2017-04-13T03:51:18.053Z,1002.05
2017-04-13T03:52:27.009Z,1002.07
2017-04-13T03:53:35.963Z,1002.04
2017-04-13T03:54:44.911Z,1002.08
2017-04-13T03:55:54.111Z,1002.07
2017-04-13T03:57:03.062Z,1002.11
2017-04-13T03:58:12.016Z,1002.12
2017-04-13T03:59:21.152Z,1002.06
2017-04-13T04:00:30.110Z,1002.08
2017-04-13T04:01:39.348Z,1002.06
2017-04-13T04:02:48.300Z,1002.05
2017-04-13T04:03:57.246Z,1002.05
2017-04-13T04:05:06.194Z,1002.06
2017-04-13T04:06:15.143Z,1002.1
2017-04-13T04:07:24.342Z,1002.11
2017-04-13T04:08:33.296Z,1002.14
2017-04-13T04:09:42.245Z,1002.12
2017-04-13T04:10:51.198Z,1002.14
2017-04-13T04:12:00.153Z,1002.09
2017-04-13T04:13:09.400Z,1002.12
2017-04-13T04:14:18.346Z,1002.18
2017-04-13T04:15:27.303Z,1002.11
2017-04-13T04:16:36.579Z,1002.11
2017-04-13T04:17:45.622Z,1002.16
2017-04-13T04:18:54.953Z,1002.13
2017-04-13T04:20:03.911Z,1002.13
2017-04-13T04:21:12.914Z,1002.16
2017-04-13T04:22:21.951Z,1002.17
2017-04-13T04:23:30.909Z,1002.2
2017-04-13T04:24:40.108Z,1002.2
2017-04-13T04:25:49.062Z,1002.18
2017-04-13T04:26:58.095Z,1002.2
2017-04-13T04:28:07.134Z,1002.17
2017-04-13T04:29:16.407Z,1002.23
2017-04-13T04:30:25.661Z,1002.27
2017-04-13T04:31:34.614Z,1002.3
2017-04-13T04:32:43.564Z,1002.24
2017-04-13T04:33:52.515Z,1002.25
2017-04-13T04:35:01.474Z,1002.2
2017-04-13T04:36:10.673Z,1002.28
2017-04-13T04:37:19.620Z,1002.29
2017-04-13T04:38:28.574Z,1002.32
2017-04-13T04:39:37.607Z,1002.29
2017-04-13T04:40:46.967Z,1002.27
2017-04-13T04:41:56.169Z,1002.29
2017-04-13T04:43:05.123Z,1002.31
2017-04-13T04:44:14.076Z,1002.26
2017-04-13T04:45:23.030Z,1002.29
2017-04-13T04:46:32.067Z,1002.3
2017-04-13T04:47:42.010Z,1002.31
2017-04-13T04:48:50.963Z,1002.33
2017-04-13T04:49:59.919Z,1002.37
2017-04-13T04:51:08.868Z,1002.32
2017-04-13T04:52:17.818Z,1002.32
2017-04-13T04:53:27.071Z,1002.35
2017-04-13T04:54:36.026Z,1002.3
2017-04-13T04:55:45.294Z,1002.35
2017-04-13T04:56:54.253Z,1002.36
2017-04-13T04:58:03.203Z,1002.4
2017-04-13T04:59:12.404Z,1002.33
2017-04-13T05:00:21.358Z,1002.39
2017-04-13T05:01:30.316Z,1002.39
2017-04-13T05:02:39.266Z,1002.41
2017-04-13T05:03:48.307Z,1002.39
2017-04-13T05:04:57.511Z,1002.37
2017-04-13T05:06:06.461Z,1002.35
2017-04-13T05:07:15.594Z,1002.36
2017-04-13T05:08:24.629Z,1002.35
2017-04-13T05:09:33.580Z,1002.38
2017-04-13T05:10:42.781Z,1002.36
2017-04-13T05:11:51.728Z,1002.39
2017-04-13T05:13:00.715Z,1002.41
2017-04-13T05:14:09.751Z,1002.42
2017-04-13T05:15:18.707Z,1002.49
2017-04-13T05:16:27.907Z,1002.49
2017-04-13T05:17:36.857Z,1002.47
2017-04-13T05:18:45.805Z,1002.47
2017-04-13T05:19:54.759Z,1002.45
2017-04-13T05:21:03.706Z,1002.49
2017-04-13T05:22:12.908Z,1002.54
2017-04-13T05:23:21.861Z,1002.54
2017-04-13T05:24:30.855Z,1002.55
2017-04-13T05:25:39.804Z,1002.55
2017-04-13T05:26:48.842Z,1002.56
2017-04-13T05:27:58.179Z,1002.51
2017-04-13T05:29:07.125Z,1002.55
2017-04-13T05:30:16.117Z,1002.58
2017-04-13T05:31:25.069Z,1002.54
2017-04-13T05:32:34.020Z,1002.55
2017-04-13T05:33:43.231Z,1002.6
2017-04-13T05:34:52.176Z,1002.57
2017-04-13T05:36:01.125Z,1002.57
2017-04-13T05:37:10.079Z,1002.56
2017-04-13T05:38:19.032Z,1002.63
2017-04-13T05:39:28.281Z,1002.62
2017-04-13T05:40:37.227Z,1002.57
2017-04-13T05:41:46.269Z,1002.63
2017-04-13T05:42:55.398Z,1002.62
2017-04-13T05:44:04.357Z,1002.68
2017-04-13T05:45:13.562Z,1002.64
2017-04-13T05:46:22.622Z,1002.61
2017-04-13T05:47:31.589Z,1002.68
2017-04-13T05:48:40.626Z,1002.64
2017-04-13T05:49:49.578Z,1002.72
2017-04-13T05:50:58.777Z,1002.65
2017-04-13T05:52:07.727Z,1002.72
2017-04-13T05:53:16.732Z,1002.69
2017-04-13T05:54:25.686Z,1002.74
2017-04-13T05:55:34.634Z,1002.7
2017-04-13T05:56:43.835Z,1002.72
2017-04-13T05:57:52.794Z,1002.72
2017-04-13T05:59:01.743Z,1002.77
2017-04-13T06:00:10.693Z,1002.82
2017-04-13T06:01:19.642Z,1002.87
2017-04-13T06:02:28.850Z,1002.86
2017-04-13T06:03:37.798Z,1002.87
2017-04-13T06:04:46.748Z,1002.87
2017-04-13T06:05:55.751Z,1002.87
2017-04-13T06:07:04.814Z,1002.92
2017-04-13T06:08:14.156Z,1002.92
2017-04-13T06:09:23.160Z,1002.97
2017-04-13T06:10:32.256Z,1002.9
2017-04-13T06:11:41.206Z,1002.93
2017-04-13T06:12:50.273Z,1002.84
2017-04-13T06:13:59.634Z,1002.91
2017-04-13T06:15:08.611Z,1002.97
2017-04-13T06:16:17.577Z,1002.92
2017-04-13T06:17:26.529Z,1003
2017-04-13T06:18:35.539Z,1002.94
2017-04-13T06:19:44.921Z,1002.91
2017-04-13T06:20:54.165Z,1003.03
2017-04-13T06:22:03.312Z,1002.94
2017-04-13T06:23:12.304Z,1003.04
2017-04-13T06:24:21.323Z,1002.97
2017-04-13T06:25:30.747Z,1003.05
2017-04-13T06:26:39.791Z,1003.02
2017-04-13T06:27:49.039Z,1003.03
2017-04-13T06:28:57.990Z,1003.1
2017-04-13T06:30:06.946Z,1003.05
2017-04-13T06:31:16.147Z,1003.05
2017-04-13T06:32:25.185Z,1003.03
2017-04-13T06:33:34.134Z,1003.12
2017-04-13T06:34:43.084Z,1003.11
2017-04-13T06:35:52.034Z,1003.11
2017-04-13T06:37:01.323Z,1003.06
2017-04-13T06:38:10.365Z,1003.09
2017-04-13T06:39:19.316Z,1003.12
2017-04-13T06:40:28.266Z,1003.17
2017-04-13T06:41:37.216Z,1003.16
2017-04-13T06:42:46.423Z,1003.26
2017-04-13T06:43:55.375Z,1003.2
2017-04-13T06:45:04.328Z,1003.2
2017-04-13T06:46:13.279Z,1003.14
2017-04-13T06:47:22.236Z,1003.22
2017-04-13T06:48:31.494Z,1003.25
2017-04-13T06:49:40.448Z,1003.19
2017-04-13T06:50:49.401Z,1003.22
2017-04-13T06:51:58.353Z,1003.26
2017-04-13T06:53:07.305Z,1003.31
2017-04-13T06:54:16.553Z,1003.26
2017-04-13T06:55:25.503Z,1003.31
2017-04-13T06:56:34.458Z,1003.26
2017-04-13T06:57:43.407Z,1003.36
2017-04-13T06:58:52.680Z,1003.29
2017-04-13T07:00:01.877Z,1003.23
2017-04-13T07:01:10.827Z,1003.26
2017-04-13T07:02:19.776Z,1003.35
2017-04-13T07:03:28.733Z,1003.28
2017-04-13T07:04:38.008Z,1003.3
2017-04-13T07:05:47.259Z,1003.28
2017-04-13T07:06:56.211Z,1003.29
2017-04-13T07:08:05.160Z,1003.21
2017-04-13T07:09:14.111Z,1003.29
2017-04-13T07:10:23.064Z,1003.32
2017-04-13T07:11:32.267Z,1003.34
2017-04-13T07:12:41.221Z,1003.3
2017-04-13T07:13:50.259Z,1003.28
2017-04-13T07:14:59.305Z,1003.34
2017-04-13T07:16:08.265Z,1003.29
2017-04-13T07:17:17.608Z,1003.33
2017-04-13T07:18:26.564Z,1003.57
2017-04-13T07:19:35.513Z,1003.5
2017-04-13T07:20:44.465Z,1003.48
2017-04-13T07:21:53.422Z,1003.34
2017-04-13T07:23:02.622Z,1003.37
2017-04-13T07:24:11.574Z,1003.54
2017-04-13T07:25:20.521Z,1003.5
2017-04-13T07:26:29.472Z,1003.56
2017-04-13T07:27:38.438Z,1003.48
2017-04-13T07:28:47.689Z,1003.52
2017-04-13T07:29:56.651Z,1003.54
2017-04-13T07:31:05.602Z,1003.53
2017-04-13T07:32:14.735Z,1003.49
2017-04-13T07:33:23.689Z,1003.53
2017-04-13T07:34:32.892Z,1003.56
2017-04-13T07:35:41.846Z,1003.66
2017-04-13T07:36:50.888Z,1003.55
2017-04-13T07:37:59.840Z,1003.51
2017-04-13T07:39:08.796Z,1003.62
2017-04-13T07:40:18.137Z,1003.61
2017-04-13T07:41:27.097Z,1003.63
2017-04-13T07:42:36.058Z,1003.68
2017-04-13T07:43:45.009Z,1003.71
2017-04-13T07:44:53.964Z,1003.6
2017-04-13T07:46:03.267Z,1003.59
2017-04-13T07:47:12.221Z,1003.64
2017-04-13T07:48:21.419Z,1003.67
2017-04-13T07:49:30.460Z,1003.67
2017-04-13T07:50:39.412Z,1003.73
2017-04-13T07:51:48.612Z,1003.74
2017-04-13T07:52:57.576Z,1003.76
2017-04-13T07:54:06.618Z,1003.72
2017-04-13T07:55:15.579Z,1003.76
2017-04-13T07:56:24.529Z,1003.78
2017-04-13T07:57:33.784Z,1003.81
2017-04-13T07:58:42.765Z,1003.77
2017-04-13T07:59:51.727Z,1003.89
2017-04-13T08:01:00.681Z,1003.83
2017-04-13T08:02:09.641Z,1003.75
2017-04-13T08:03:18.843Z,1003.77
2017-04-13T08:04:27.798Z,1003.88
2017-04-13T08:05:36.750Z,1003.82
2017-04-13T08:06:45.708Z,1003.76
2017-04-13T08:07:54.670Z,1003.89
2017-04-13T08:09:03.877Z,1003.92
2017-04-13T08:10:12.915Z,1003.99
2017-04-13T08:11:21.866Z,1003.98
2017-04-13T08:12:30.823Z,1003.88
2017-04-13T08:13:39.772Z,1004.09
2017-04-13T08:14:48.978Z,1003.95
2017-04-13T08:15:57.933Z,1003.87
2017-04-13T08:17:06.887Z,1003.96
2017-04-13T08:18:15.845Z,1004.02
2017-04-13T08:19:24.883Z,1003.9
2017-04-13T08:20:34.091Z,1003.88
2017-04-13T08:21:43.045Z,1003.95
2017-04-13T08:22:52.000Z,1003.93
2017-04-13T08:24:00.957Z,1004
2017-04-13T08:25:09.909Z,1003.97
2017-04-13T08:26:19.121Z,1004.02
2017-04-13T08:27:28.072Z,1004.01
2017-04-13T08:28:37.026Z,1004.1
2017-04-13T08:29:46.306Z,1004.09
2017-04-13T08:30:55.259Z,1004.1
2017-04-13T08:32:04.462Z,1004.04
2017-04-13T08:33:13.416Z,1004.06
2017-04-13T08:34:22.368Z,1004.03
2017-04-13T08:35:31.328Z,1003.98
2017-04-13T08:36:40.284Z,1004.04
2017-04-13T08:37:49.535Z,1004.11
2017-04-13T08:38:58.487Z,1004.15
2017-04-13T08:40:07.442Z,1004.18
2017-04-13T08:41:16.482Z,1004.15
2017-04-13T08:42:25.436Z,1004.21
2017-04-13T08:43:34.638Z,1004.13
2017-04-13T08:44:43.592Z,1004.15
2017-04-13T08:45:52.590Z,1004.12
2017-04-13T08:47:01.550Z,1004.29
2017-04-13T08:48:10.501Z,1004.36
2017-04-13T08:49:19.702Z,1004.13
2017-04-13T08:50:28.742Z,1004.19
2017-04-13T08:51:37.705Z,1004.25
2017-04-13T08:52:46.662Z,1004.3
2017-04-13T08:53:55.618Z,1004.3
2017-04-13T08:55:04.819Z,1004.22
2017-04-13T08:56:13.779Z,1004.33
2017-04-13T08:57:22.731Z,1004.26
2017-04-13T08:58:31.724Z,1004.3
2017-04-13T08:59:40.683Z,1004.28
2017-04-13T09:00:49.977Z,1004.31
2017-04-13T09:01:59.013Z,1004.34
2017-04-13T09:03:07.963Z,1004.39
2017-04-13T09:04:16.915Z,1004.31
2017-04-13T09:05:25.965Z,1004.31
2017-04-13T09:06:35.369Z,1004.39
2017-04-13T09:07:44.327Z,1004.33
2017-04-13T09:08:53.277Z,1004.31
2017-04-13T09:10:02.231Z,1004.19
2017-04-13T09:11:11.186Z,1004.21
2017-04-13T09:12:20.490Z,1004.25
2017-04-13T09:13:29.443Z,1004.12
2017-04-13T09:14:38.403Z,1004.22
2017-04-13T09:15:47.359Z,1004.18
2017-04-13T09:16:56.315Z,1004.16
2017-04-13T09:18:05.566Z,1004.16
2017-04-13T09:19:14.522Z,1004.16
2017-04-13T09:20:23.477Z,1004.16
2017-04-13T09:21:32.434Z,1004.18
2017-04-13T09:22:41.396Z,1004.16
2017-04-13T09:23:50.348Z,1004.31
2017-04-13T09:24:59.302Z,1004.26
2017-04-13T09:26:08.260Z,1004.2
2017-04-13T09:27:17.215Z,1004.18
2017-04-13T09:28:26.552Z,1004.31
2017-04-13T09:29:35.507Z,1004.22
2017-04-13T09:30:44.463Z,1004.19
2017-04-13T09:31:53.420Z,1004.15
2017-04-13T09:33:02.372Z,1004.19
2017-04-13T09:34:11.624Z,1004.18
2017-04-13T09:35:20.579Z,1004.2
2017-04-13T09:36:29.536Z,1004.18
2017-04-13T09:37:38.814Z,1004.19
2017-04-13T09:38:47.770Z,1004.16
2017-04-13T09:39:56.970Z,1004.17
2017-04-13T09:41:05.922Z,1004.27
2017-04-13T09:42:14.881Z,1004.25
2017-04-13T09:43:23.837Z,1004.16
2017-04-13T09:44:32.789Z,1004.29
2017-04-13T09:45:42.048Z,1004.23
2017-04-13T09:46:51.010Z,1004.34
2017-04-13T09:47:59.962Z,1004.25
2017-04-13T09:49:08.918Z,1004.12
2017-04-13T09:50:17.957Z,1004.14
2017-04-13T09:51:27.162Z,1004.11
2017-04-13T09:52:36.123Z,1004.14
2017-04-13T09:53:45.082Z,1004.23
2017-04-13T09:54:54.044Z,1004.27
2017-04-13T09:56:02.994Z,1004.28
2017-04-13T09:57:12.199Z,1004.17
2017-04-13T09:58:21.187Z,1004.24
2017-04-13T09:59:30.234Z,1004.28
2017-04-13T10:00:39.187Z,1004.25
2017-04-13T10:01:48.176Z,1004.16
2017-04-13T10:02:57.832Z,1004.17
2017-04-13T10:04:06.816Z,1004.07
2017-04-13T10:05:15.863Z,1004.03
2017-04-13T10:06:24.822Z,1004
2017-04-13T10:07:33.779Z,1004.16
2017-04-13T10:08:43.103Z,1004.15
2017-04-13T10:09:52.075Z,1004.12
2017-04-13T10:11:01.025Z,1004.19
2017-04-13T10:12:10.073Z,1004.1
2017-04-13T10:13:19.126Z,1004.17
2017-04-13T10:14:28.546Z,1004.12
2017-04-13T10:15:37.497Z,1004.21
2017-04-13T10:16:46.454Z,1004.1
2017-04-13T10:17:55.532Z,1004.25
2017-04-13T10:19:04.506Z,1004.13
2017-04-13T10:20:13.746Z,1004.13
2017-04-13T10:21:22.743Z,1004.15
2017-04-13T10:22:31.843Z,1004.09
2017-04-13T10:23:41.014Z,1004.11
2017-04-13T10:24:50.323Z,1004.27
2017-04-13T10:25:59.576Z,1004.31
2017-04-13T10:27:08.539Z,1004.23
2017-04-13T10:28:17.617Z,1004.25
2017-04-13T10:29:26.626Z,1004.22
2017-04-13T10:30:35.585Z,1004.16
2017-04-13T10:31:44.882Z,1004.12
2017-04-13T10:32:53.870Z,1004.1
2017-04-13T10:34:02.828Z,1004.07
2017-04-13T10:35:11.789Z,1004.1
2017-04-13T10:36:20.746Z,1004.12
2017-04-13T10:37:30.095Z,1004.15
2017-04-13T10:38:39.051Z,1004.14
2017-04-13T10:39:48.011Z,1004.19
2017-04-13T10:40:56.963Z,1004.12
2017-04-13T10:42:05.921Z,1004.17
2017-04-13T10:43:15.182Z,1004.05
2017-04-13T10:44:24.131Z,1004
2017-04-13T10:45:33.091Z,1004.05
2017-04-13T10:46:42.057Z,1004.23
2017-04-13T10:47:51.012Z,1004.25
2017-04-13T10:49:00.220Z,1004.17
2017-04-13T10:50:09.265Z,1004.13
2017-04-13T10:51:18.222Z,1004.16
2017-04-13T10:52:27.189Z,1004.1
2017-04-13T10:53:36.142Z,1004.12
2017-04-13T10:54:45.349Z,1004.09
2017-04-13T10:55:54.310Z,1004.21
2017-04-13T10:57:03.266Z,1004.22
2017-04-13T10:58:12.225Z,1004.21
2017-04-13T10:59:21.177Z,1004.16
2017-04-13T11:00:30.434Z,1004.23
2017-04-13T11:01:39.390Z,1004.1
2017-04-13T11:02:48.346Z,1004.2
2017-04-13T11:03:57.344Z,1004.29
2017-04-13T11:05:06.299Z,1004.17
2017-04-13T11:06:15.501Z,1004.09
2017-04-13T11:07:24.464Z,1004.03
2017-04-13T11:08:33.426Z,1004.13
2017-04-13T11:09:42.378Z,1004.16
2017-04-13T11:10:51.333Z,1004.12
2017-04-13T11:12:00.548Z,1004.17
2017-04-13T11:13:09.505Z,1004.16
2017-04-13T11:14:18.548Z,1004.17
2017-04-13T11:15:27.832Z,1004.25
2017-04-13T11:16:36.788Z,1004.27
2017-04-13T11:17:46.049Z,1004.21
2017-04-13T11:18:55.003Z,1004.19
2017-04-13T11:20:04.047Z,1004.16
2017-04-13T11:21:13.004Z,1004.22
2017-04-13T11:22:21.964Z,1004.22
2017-04-13T11:23:31.177Z,1004.22
2017-04-13T11:24:40.223Z,1004.24
2017-04-13T11:25:49.358Z,1004.16
2017-04-13T11:26:58.309Z,1004.22
2017-04-13T11:28:07.266Z,1004.21
2017-04-13T11:29:16.475Z,1004.23
2017-04-13T11:30:25.431Z,1004.23
2017-04-13T11:31:34.385Z,1004.22
2017-04-13T11:32:43.428Z,1004.22
2017-04-13T11:33:52.388Z,1004.24
2017-04-13T11:35:01.594Z,1004.32
2017-04-13T11:36:10.559Z,1004.23
2017-04-13T11:37:19.524Z,1004.3
2017-04-13T11:38:28.481Z,1004.3
2017-04-13T11:39:37.437Z,1004.25
2017-04-13T11:40:46.697Z,1004.19
2017-04-13T11:41:55.653Z,1004.19
2017-04-13T11:43:04.612Z,1004.22
2017-04-13T11:44:13.568Z,1004.28
2017-04-13T11:45:22.528Z,1004.33
2017-04-13T11:46:31.741Z,1004.23
2017-04-13T11:47:40.788Z,1004.17
2017-04-13T11:48:49.750Z,1004.2
2017-04-13T11:49:58.813Z,1004.23
2017-04-13T11:51:07.769Z,1004.23
2017-04-13T11:52:17.068Z,1004.28
2017-04-13T11:53:26.030Z,1004.26
2017-04-13T11:54:34.984Z,1004.26
2017-04-13T11:55:44.026Z,1004.34
2017-04-13T11:56:52.982Z,1004.23
2017-04-13T11:58:02.194Z,1004.35
2017-04-13T11:59:11.150Z,1004.29
2017-04-13T12:00:20.428Z,1004.27
2017-04-13T12:01:29.382Z,1004.3
2017-04-13T12:02:38.338Z,1004.34
2017-04-13T12:03:47.556Z,1004.41
2017-04-13T12:04:56.513Z,1004.47
2017-04-13T12:06:05.794Z,1004.39
2017-04-13T12:07:14.771Z,1004.45
2017-04-13T12:08:23.726Z,1004.4
2017-04-13T12:09:32.980Z,1004.46
2017-04-13T12:10:41.941Z,1004.5
2017-04-13T12:11:50.897Z,1004.59
2017-04-13T12:12:59.853Z,1004.59
2017-04-13T12:14:08.803Z,1004.59
2017-04-13T12:15:18.008Z,1004.62
2017-04-13T12:16:26.964Z,1004.59
2017-04-13T12:17:35.935Z,1004.69
2017-04-13T12:18:44.886Z,1004.74
2017-04-13T12:19:53.842Z,1004.72
2017-04-13T12:21:03.056Z,1004.78
2017-04-13T12:22:12.016Z,1004.76
2017-04-13T12:23:20.994Z,1004.63
2017-04-13T12:24:30.362Z,1004.75
2017-04-13T12:25:39.407Z,1004.72
2017-04-13T12:26:48.753Z,1004.68
2017-04-13T12:27:57.706Z,1004.67
2017-04-13T12:29:06.704Z,1004.61
2017-04-13T12:30:15.747Z,1004.65
2017-04-13T12:31:24.701Z,1004.64
2017-04-13T12:32:33.910Z,1004.69
2017-04-13T12:33:42.865Z,1004.63
2017-04-13T12:34:51.825Z,1004.65
2017-04-13T12:36:00.781Z,1004.61
2017-04-13T12:37:09.737Z,1004.7
2017-04-13T12:38:18.946Z,1004.64
2017-04-13T12:39:27.905Z,1004.79
2017-04-13T12:40:36.864Z,1004.75
2017-04-13T12:41:45.824Z,1004.7
2017-04-13T12:42:54.782Z,1004.71
2017-04-13T12:44:03.989Z,1004.73
2017-04-13T12:45:13.033Z,1004.74
2017-04-13T12:46:22.078Z,1004.67
2017-04-13T12:47:31.036Z,1004.57
2017-04-13T12:48:40.075Z,1004.7
2017-04-13T12:49:49.280Z,1004.62
2017-04-13T12:50:58.230Z,1004.61
2017-04-13T12:52:07.275Z,1004.57
2017-04-13T12:53:16.229Z,1004.59
2017-04-13T12:54:25.189Z,1004.6
2017-04-13T12:55:34.401Z,1004.63
2017-04-13T12:56:43.356Z,1004.5
2017-04-13T12:57:52.310Z,1004.52
2017-04-13T12:59:01.266Z,1004.46
2017-04-13T13:00:10.220Z,1004.53
2017-04-13T13:01:19.646Z,1004.56
2017-04-13T13:02:28.607Z,1004.54
2017-04-13T13:03:37.661Z,1004.42
2017-04-13T13:04:46.618Z,1004.46
2017-04-13T13:05:55.573Z,1004.4
2017-04-13T13:07:04.827Z,1004.33
2017-04-13T13:08:13.782Z,1004.43
2017-04-13T13:09:22.734Z,1004.37
2017-04-13T13:10:31.690Z,1004.46
2017-04-13T13:11:40.981Z,1004.43
2017-04-13T13:12:50.236Z,1004.37
2017-04-13T13:13:59.192Z,1004.35
2017-04-13T13:15:08.145Z,1004.39
2017-04-13T13:16:17.102Z,1004.3
2017-04-13T13:17:26.066Z,1004.27
2017-04-13T13:18:35.332Z,1004.34
2017-04-13T13:19:44.285Z,1004.35
2017-04-13T13:20:53.242Z,1004.31
2017-04-13T13:22:02.196Z,1004.34
2017-04-13T13:23:11.149Z,1004.26
2017-04-13T13:24:20.350Z,1004.21
2017-04-13T13:25:29.310Z,1004.24
2017-04-13T13:26:38.265Z,1004.24
2017-04-13T13:27:47.225Z,1004.31
2017-04-13T13:28:56.183Z,1004.28
2017-04-13T13:30:05.388Z,1004.11
2017-04-13T13:31:14.356Z,1004.19
2017-04-13T13:32:23.487Z,1004.28
2017-04-13T13:33:32.440Z,1004.21
2017-04-13T13:34:41.481Z,1004.32
2017-04-13T13:35:50.685Z,1004.28
2017-04-13T13:36:59.642Z,1004.25
2017-04-13T13:38:08.641Z,1004.3
2017-04-13T13:39:17.601Z,1004.28
2017-04-13T13:40:26.562Z,1004.36
2017-04-13T13:41:35.768Z,1004.37
2017-04-13T13:42:44.724Z,1004.38
2017-04-13T13:43:53.677Z,1004.41
2017-04-13T13:45:02.966Z,1004.5
2017-04-13T13:46:11.922Z,1004.49
2017-04-13T13:47:21.135Z,1004.51
2017-04-13T13:48:30.088Z,1004.4
2017-04-13T13:49:39.045Z,1004.46
2017-04-13T13:50:48.001Z,1004.51
2017-04-13T13:51:56.952Z,1004.47
2017-04-13T13:53:06.156Z,1004.49
2017-04-13T13:54:15.113Z,1004.54
2017-04-13T13:55:24.069Z,1004.52
2017-04-13T13:56:33.022Z,1004.44
2017-04-13T13:57:41.979Z,1004.43